Terminal Aerodrome Forecast
Issued by NWS

Home | Current Version | Previous Version | Text Only | Print | Product List | Glossary On
Versions: 1 2 3 4 5 6 7 8 9 10 11 12 13 14 15 16 17 18 19 20 21 22 23 24 25 26 27 28 29 30 31 32
000
FTUS46 KOTX 281735
TAFMWH
TAF
KMWH 281735Z 2818/2918 35004KT P6SM VCSH SCT060 BKN100
     FM282200 34007KT P6SM BKN080
     FM290700 03010KT P6SM OVC025
     FM291000 03013G20KT 5SM -SN SCT010 OVC020
     FM291500 04015G25KT P6SM OVC040=

USA.gov is the U.S. government's official web portal to all federal, state and local government web resources and services.